Time,TemperatureF,DewpointF,PressureIn,WindDirection,WindDirectionDegrees,WindSpeedMPH,WindSpeedGustMPH,Humidity,HourlyPrecipIn,Conditions,Clouds,dailyrainin,SoftwareType,DateUTC
2013-07-11 00:00:00,64.7,64.4,29.99,SSW,206,0.0,0.0,99,0.00,,SKC,0.00,VWS V14.01,2013-07-11 04:00:00,
2013-07-11 00:30:00,64.9,64.6,29.98,SSW,204,0.0,0.0,99,0.00,,SKC,0.00,VWS V14.01,2013-07-11 04:30:00,
2013-07-11 01:00:00,65.1,64.8,29.97,South,175,0.0,0.0,99,0.00,,SKC,0.00,VWS V14.01,2013-07-11 05:00:00,
2013-07-11 01:30:00,64.4,64.1,29.97,SW,227,0.0,0.0,99,0.00,,SKC,0.00,VWS V14.01,2013-07-11 05:30:00,
2013-07-11 02:00:00,64.1,63.8,29.96,SW,227,0.0,0.0,99,0.00,,SKC,0.00,VWS V14.01,2013-07-11 06:00:00,
2013-07-11 02:30:00,64.3,64.3,29.96,SW,227,0.0,0.0,100,0.00,,SKC,0.00,VWS V14.01,2013-07-11 06:30:00,
2013-07-11 03:00:00,64.6,64.6,29.96,SW,227,0.0,0.0,100,0.00,,SKC,0.00,VWS V14.01,2013-07-11 07:00:00,
2013-07-11 03:30:00,64.7,64.7,29.97,SW,227,0.0,0.0,100,0.00,,SKC,0.00,VWS V14.01,2013-07-11 07:30:00,
2013-07-11 04:00:00,64.8,64.8,29.97,SW,226,0.0,0.0,100,0.00,,SKC,0.00,VWS V14.01,2013-07-11 08:00:00,
2013-07-11 04:30:00,64.6,64.6,29.97,SW,226,0.0,0.0,100,0.00,,SKC,0.00,VWS V14.01,2013-07-11 08:30:00,
2013-07-11 05:00:00,64.5,64.5,29.95,SW,226,0.0,0.0,100,0.00,,SKC,0.00,VWS V14.01,2013-07-11 09:00:00,
2013-07-11 05:30:00,64.4,64.4,29.95,SW,226,0.0,0.0,100,0.00,,SKC,0.00,VWS V14.01,2013-07-11 09:30:00,
2013-07-11 06:01:00,64.5,64.5,29.95,SW,226,0.0,0.0,100,0.00,,SKC,0.00,VWS V14.01,2013-07-11 10:01:00,
2013-07-11 06:30:00,64.5,64.5,29.96,SW,226,0.0,0.0,100,0.00,,SKC,0.00,VWS V14.01,2013-07-11 10:30:00,
2013-07-11 07:00:00,65.1,65.1,29.97,SW,226,0.0,0.0,100,0.00,,SKC,0.00,VWS V14.01,2013-07-11 11:00:00,
2013-07-11 07:30:00,65.8,65.8,29.98,SW,226,0.0,0.0,100,0.00,,SKC,0.00,VWS V14.01,2013-07-11 11:30:00,
2013-07-11 08:00:00,66.9,66.9,29.98,SW,226,0.0,0.0,100,0.00,,SKC,0.00,VWS V14.01,2013-07-11 12:00:00,
2013-07-11 08:30:00,67.9,67.9,29.98,SW,226,0.0,0.0,100,0.00,,SKC,0.00,VWS V14.01,2013-07-11 12:30:00,
2013-07-11 10:00:00,69.5,68.3,29.98,SSE,157,1.0,1.0,96,0.00,,SKC,0.00,VWS V14.01,2013-07-11 14:00:00,
2013-07-11 10:30:00,70.2,69.0,29.97,SSE,158,0.0,1.0,96,0.00,,SKC,0.00,VWS V14.01,2013-07-11 14:30:00,
2013-07-11 11:00:00,71.5,70.3,29.97,ESE,108,0.0,1.0,96,0.00,,SKC,0.00,VWS V14.01,2013-07-11 15:00:00,
2013-07-11 11:30:00,74.8,71.3,29.97,East,94,0.0,1.0,89,0.00,,SKC,0.00,VWS V14.01,2013-07-11 15:30:00,
2013-07-11 12:00:00,75.3,69.4,29.97,ESE,112,0.0,2.0,82,0.00,,SKC,0.00,VWS V14.01,2013-07-11 16:00:00,
2013-07-11 12:30:00,74.2,70.1,29.96,SSE,150,0.0,1.0,87,0.00,,SKC,0.00,VWS V14.01,2013-07-11 16:30:00,
2013-07-11 13:00:00,70.7,69.2,29.96,SSE,152,0.0,1.0,95,0.53,,SKC,0.53,VWS V14.01,2013-07-11 17:00:00,
2013-07-11 13:30:00,73.7,70.9,29.95,ENE,76,0.0,2.0,91,0.53,,SKC,0.53,VWS V14.01,2013-07-11 17:30:00,
2013-07-11 14:00:00,74.6,71.5,29.95,West,278,0.0,1.0,90,0.53,,SKC,0.53,VWS V14.01,2013-07-11 18:00:00,
2013-07-11 14:30:00,74.2,71.4,29.94,West,277,0.0,1.0,91,0.00,,SKC,0.53,VWS V14.01,2013-07-11 18:30:00,
2013-07-11 15:00:00,74.8,71.3,29.93,SE,124,0.0,1.0,89,0.00,,SKC,0.53,VWS V14.01,2013-07-11 19:00:00,
2013-07-11 15:30:00,74.9,71.4,29.92,SE,124,0.0,1.0,89,0.00,,SKC,0.53,VWS V14.01,2013-07-11 19:30:00,
2013-07-11 16:00:00,73.4,70.9,29.92,NNE,13,0.0,3.0,92,0.01,,SKC,0.54,VWS V14.01,2013-07-11 20:00:00,
2013-07-11 16:30:00,70.8,69.6,29.92,WNW,287,0.0,1.0,96,0.19,,SKC,0.72,VWS V14.01,2013-07-11 20:30:00,
2013-07-11 17:00:00,71.2,70.0,29.91,NE,36,0.0,1.0,96,0.19,,SKC,0.72,VWS V14.01,2013-07-11 21:00:00,
2013-07-11 18:00:00,71.0,69.8,29.91,ESE,104,0.0,0.0,96,0.00,,SKC,0.72,VWS V14.01,2013-07-11 22:00:00,
2013-07-11 18:30:00,71.6,70.4,29.90,ESE,104,0.0,0.0,96,0.00,,SKC,0.72,VWS V14.01,2013-07-11 22:30:00,
2013-07-11 19:30:00,71.4,70.5,29.91,ESE,104,0.0,0.0,97,0.00,,SKC,0.72,VWS V14.01,2013-07-11 23:30:00,
2013-07-11 20:00:00,70.6,69.7,29.91,ESE,104,0.0,0.0,97,0.00,,SKC,0.72,VWS V14.01,2013-07-12 00:00:00,
2013-07-11 20:30:00,69.4,68.5,29.92,ESE,104,0.0,0.0,97,0.00,,SKC,0.72,VWS V14.01,2013-07-12 00:30:00,
2013-07-11 21:00:00,68.3,67.7,29.91,ESE,104,0.0,0.0,98,0.00,,SKC,0.72,VWS V14.01,2013-07-12 01:00:00,
2013-07-11 21:30:00,67.5,67.2,29.92,ESE,104,0.0,1.0,99,0.00,,SKC,0.72,VWS V14.01,2013-07-12 01:30:00,
2013-07-11 22:00:00,67.3,67.0,29.93,SW,233,0.0,1.0,99,0.00,,SKC,0.72,VWS V14.01,2013-07-12 02:00:00,
2013-07-11 23:00:00,64.8,63.9,29.94,SSE,163,0.0,5.0,97,0.05,,SKC,0.77,VWS V14.01,2013-07-12 03:00:00,
2013-07-11 23:30:00,64.0,63.7,29.93,SSE,163,0.0,0.0,99,0.08,,SKC,0.80,VWS V14.01,2013-07-12 03:30:00,